sensor_id;sensor_type;location;lat;lon;timestamp;P1;durP1;ratioP1;P2;durP2;ratioP2
78555;SDS011;67851;51.354;7.744;2024-02-04T00:00:07;22.88;;;14.10;;
78555;SDS011;67851;51.354;7.744;2024-02-04T00:02:37;24.45;;;14.30;;
78555;SDS011;67851;51.354;7.744;2024-02-04T00:05:05;20.10;;;13.10;;
78555;SDS011;67851;51.354;7.744;2024-02-04T00:07:31;18.67;;;12.30;;
78555;SDS011;67851;51.354;7.744;2024-02-04T00:10:01;19.67;;;11.50;;
78555;SDS011;67851;51.354;7.744;2024-02-04T00:12:27;18.35;;;11.27;;
78555;SDS011;67851;51.354;7.744;2024-02-04T00:14:54;16.65;;;11.63;;
78555;SDS011;67851;51.354;7.744;2024-02-04T00:17:21;18.77;;;11.77;;
78555;SDS011;67851;51.354;7.744;2024-02-04T00:19:47;14.90;;;10.80;;
78555;SDS011;67851;51.354;7.744;2024-02-04T00:22:14;20.85;;;12.52;;
78555;SDS011;67851;51.354;7.744;2024-02-04T00:24:44;23.67;;;11.75;;
78555;SDS011;67851;51.354;7.744;2024-02-04T00:27:11;22.35;;;11.88;;
78555;SDS011;67851;51.354;7.744;2024-02-04T00:29:38;16.70;;;11.23;;
78555;SDS011;67851;51.354;7.744;2024-02-04T00:32:06;13.10;;;9.27;;
78555;SDS011;67851;51.354;7.744;2024-02-04T00:34:33;13.95;;;10.18;;
78555;SDS011;67851;51.354;7.744;2024-02-04T00:37:01;16.33;;;10.60;;
78555;SDS011;67851;51.354;7.744;2024-02-04T00:39:28;15.55;;;10.05;;
78555;SDS011;67851;51.354;7.744;2024-02-04T00:41:55;19.02;;;10.40;;
78555;SDS011;67851;51.354;7.744;2024-02-04T00:44:22;15.15;;;9.50;;
78555;SDS011;67851;51.354;7.744;2024-02-04T00:46:49;18.30;;;10.95;;
78555;SDS011;67851;51.354;7.744;2024-02-04T00:49:16;20.65;;;10.55;;
78555;SDS011;67851;51.354;7.744;2024-02-04T00:51:43;17.88;;;10.05;;
78555;SDS011;67851;51.354;7.744;2024-02-04T00:54:10;16.33;;;11.32;;
78555;SDS011;67851;51.354;7.744;2024-02-04T00:56:37;17.83;;;10.48;;
78555;SDS011;67851;51.354;7.744;2024-02-04T00:59:04;15.07;;;10.07;;
78555;SDS011;67851;51.354;7.744;2024-02-04T01:01:31;15.80;;;10.45;;
78555;SDS011;67851;51.354;7.744;2024-02-04T01:03:58;17.88;;;10.43;;
78555;SDS011;67851;51.354;7.744;2024-02-04T01:06:25;18.25;;;10.55;;
78555;SDS011;67851;51.354;7.744;2024-02-04T01:08:52;19.05;;;11.38;;
78555;SDS011;67851;51.354;7.744;2024-02-04T01:11:19;19.88;;;10.60;;
78555;SDS011;67851;51.354;7.744;2024-02-04T01:13:46;17.42;;;10.82;;
78555;SDS011;67851;51.354;7.744;2024-02-04T01:16:12;14.48;;;10.05;;
78555;SDS011;67851;51.354;7.744;2024-02-04T01:18:39;14.50;;;9.90;;
78555;SDS011;67851;51.354;7.744;2024-02-04T01:21:06;13.90;;;8.93;;
78555;SDS011;67851;51.354;7.744;2024-02-04T01:23:34;13.95;;;8.95;;
78555;SDS011;67851;51.354;7.744;2024-02-04T01:26:01;12.57;;;7.65;;
78555;SDS011;67851;51.354;7.744;2024-02-04T01:28:28;11.88;;;8.10;;
78555;SDS011;67851;51.354;7.744;2024-02-04T01:30:55;12.00;;;7.25;;
78555;SDS011;67851;51.354;7.744;2024-02-04T01:33:23;12.38;;;7.40;;
78555;SDS011;67851;51.354;7.744;2024-02-04T01:35:50;11.68;;;6.82;;
78555;SDS011;67851;51.354;7.744;2024-02-04T01:38:20;12.43;;;6.85;;
78555;SDS011;67851;51.354;7.744;2024-02-04T01:40:47;8.10;;;5.47;;
78555;SDS011;67851;51.354;7.744;2024-02-04T01:43:14;6.75;;;4.72;;
78555;SDS011;67851;51.354;7.744;2024-02-04T01:45:40;5.30;;;4.30;;
78555;SDS011;67851;51.354;7.744;2024-02-04T01:48:07;5.45;;;4.05;;
78555;SDS011;67851;51.354;7.744;2024-02-04T01:50:37;8.10;;;3.95;;
78555;SDS011;67851;51.354;7.744;2024-02-04T01:53:03;4.13;;;2.50;;
78555;SDS011;67851;51.354;7.744;2024-02-04T01:55:31;4.32;;;2.63;;
78555;SDS011;67851;51.354;7.744;2024-02-04T01:57:59;5.38;;;3.00;;
78555;SDS011;67851;51.354;7.744;2024-02-04T02:00:26;2.72;;;1.88;;
78555;SDS011;67851;51.354;7.744;2024-02-04T02:02:53;3.10;;;1.98;;
78555;SDS011;67851;51.354;7.744;2024-02-04T02:05:20;2.60;;;1.70;;
78555;SDS011;67851;51.354;7.744;2024-02-04T02:07:47;2.28;;;1.50;;
78555;SDS011;67851;51.354;7.744;2024-02-04T02:10:18;2.22;;;1.48;;
78555;SDS011;67851;51.354;7.744;2024-02-04T02:12:48;1.63;;;1.30;;
78555;SDS011;67851;51.354;7.744;2024-02-04T02:15:20;1.58;;;0.98;;
78555;SDS011;67851;51.354;7.744;2024-02-04T02:17:55;2.63;;;1.10;;
78555;SDS011;67851;51.354;7.744;2024-02-04T02:23:22;2.20;;;0.95;;
78555;SDS011;67851;51.354;7.744;2024-02-04T02:26:03;0.98;;;0.88;;
78555;SDS011;67851;51.354;7.744;2024-02-04T02:28:30;1.10;;;0.90;;
78555;SDS011;67851;51.354;7.744;2024-02-04T02:30:57;1.75;;;1.00;;
78555;SDS011;67851;51.354;7.744;2024-02-04T02:33:23;0.95;;;0.85;;
78555;SDS011;67851;51.354;7.744;2024-02-04T02:35:51;1.80;;;1.30;;
78555;SDS011;67851;51.354;7.744;2024-02-04T02:38:22;2.40;;;1.00;;
78555;SDS011;67851;51.354;7.744;2024-02-04T02:40:54;0.88;;;0.75;;
78555;SDS011;67851;51.354;7.744;2024-02-04T02:43:22;1.40;;;1.05;;
78555;SDS011;67851;51.354;7.744;2024-02-04T02:45:49;1.58;;;1.33;;
78555;SDS011;67851;51.354;7.744;2024-02-04T02:48:16;2.65;;;1.50;;
78555;SDS011;67851;51.354;7.744;2024-02-04T02:50:43;3.35;;;2.10;;
78555;SDS011;67851;51.354;7.744;2024-02-04T02:53:10;4.47;;;2.28;;
78555;SDS011;67851;51.354;7.744;2024-02-04T02:55:36;3.20;;;2.45;;
78555;SDS011;67851;51.354;7.744;2024-02-04T02:58:05;6.75;;;4.25;;
78555;SDS011;67851;51.354;7.744;2024-02-04T03:00:33;7.13;;;4.68;;
78555;SDS011;67851;51.354;7.744;2024-02-04T03:03:00;8.30;;;5.15;;
78555;SDS011;67851;51.354;7.744;2024-02-04T03:05:28;7.07;;;4.10;;
78555;SDS011;67851;51.354;7.744;2024-02-04T03:07:55;9.95;;;6.05;;
78555;SDS011;67851;51.354;7.744;2024-02-04T03:10:21;8.48;;;5.53;;
78555;SDS011;67851;51.354;7.744;2024-02-04T03:12:48;10.52;;;5.68;;
78555;SDS011;67851;51.354;7.744;2024-02-04T03:15:15;13.23;;;8.55;;
78555;SDS011;67851;51.354;7.744;2024-02-04T03:17:45;12.65;;;7.35;;
78555;SDS011;67851;51.354;7.744;2024-02-04T03:20:11;13.57;;;8.90;;
78555;SDS011;67851;51.354;7.744;2024-02-04T03:22:38;15.70;;;8.73;;
78555;SDS011;67851;51.354;7.744;2024-02-04T03:25:05;15.23;;;8.50;;
78555;SDS011;67851;51.354;7.744;2024-02-04T03:27:33;13.73;;;8.07;;
78555;SDS011;67851;51.354;7.744;2024-02-04T03:30:00;14.73;;;7.85;;
78555;SDS011;67851;51.354;7.744;2024-02-04T03:32:28;12.20;;;8.27;;
78555;SDS011;67851;51.354;7.744;2024-02-04T03:35:00;15.85;;;9.82;;
78555;SDS011;67851;51.354;7.744;2024-02-04T03:37:28;18.88;;;10.82;;
78555;SDS011;67851;51.354;7.744;2024-02-04T03:39:56;19.42;;;11.05;;
78555;SDS011;67851;51.354;7.744;2024-02-04T03:42:23;20.73;;;11.77;;
78555;SDS011;67851;51.354;7.744;2024-02-04T03:44:50;19.13;;;12.75;;
78555;SDS011;67851;51.354;7.744;2024-02-04T03:47:17;21.10;;;12.82;;
78555;SDS011;67851;51.354;7.744;2024-02-04T03:49:43;27.75;;;14.75;;
78555;SDS011;67851;51.354;7.744;2024-02-04T03:52:10;28.67;;;15.77;;
78555;SDS011;67851;51.354;7.744;2024-02-04T03:54:37;30.25;;;17.67;;
78555;SDS011;67851;51.354;7.744;2024-02-04T03:57:04;33.45;;;19.80;;
78555;SDS011;67851;51.354;7.744;2024-02-04T03:59:33;36.08;;;19.23;;
78555;SDS011;67851;51.354;7.744;2024-02-04T04:02:00;34.40;;;18.10;;
78555;SDS011;67851;51.354;7.744;2024-02-04T04:04:27;46.95;;;22.98;;
78555;SDS011;67851;51.354;7.744;2024-02-04T04:06:55;50.40;;;22.38;;
78555;SDS011;67851;51.354;7.744;2024-02-04T04:09:23;42.42;;;21.73;;
78555;SDS011;67851;51.354;7.744;2024-02-04T04:11:49;36.63;;;18.33;;
78555;SDS011;67851;51.354;7.744;2024-02-04T04:14:16;46.33;;;23.40;;
78555;SDS011;67851;51.354;7.744;2024-02-04T04:16:44;42.88;;;21.02;;
78555;SDS011;67851;51.354;7.744;2024-02-04T04:19:11;51.80;;;23.83;;
78555;SDS011;67851;51.354;7.744;2024-02-04T04:21:38;53.00;;;25.73;;
78555;SDS011;67851;51.354;7.744;2024-02-04T04:24:08;46.92;;;23.00;;
78555;SDS011;67851;51.354;7.744;2024-02-04T04:26:35;48.33;;;23.63;;
78555;SDS011;67851;51.354;7.744;2024-02-04T04:29:03;44.35;;;22.98;;
78555;SDS011;67851;51.354;7.744;2024-02-04T04:31:29;57.72;;;24.60;;
78555;SDS011;67851;51.354;7.744;2024-02-04T04:33:56;55.85;;;24.42;;
78555;SDS011;67851;51.354;7.744;2024-02-04T04:36:23;59.55;;;26.27;;
78555;SDS011;67851;51.354;7.744;2024-02-04T04:38:50;52.95;;;26.02;;
78555;SDS011;67851;51.354;7.744;2024-02-04T04:41:17;54.55;;;26.30;;
78555;SDS011;67851;51.354;7.744;2024-02-04T04:43:44;58.55;;;26.50;;
78555;SDS011;67851;51.354;7.744;2024-02-04T04:46:12;59.22;;;28.13;;
78555;SDS011;67851;51.354;7.744;2024-02-04T04:48:39;35.10;;;18.33;;
78555;SDS011;67851;51.354;7.744;2024-02-04T04:51:10;47.00;;;22.35;;
78555;SDS011;67851;51.354;7.744;2024-02-04T04:53:38;43.58;;;21.48;;
78555;SDS011;67851;51.354;7.744;2024-02-04T04:56:05;32.80;;;18.90;;
78555;SDS011;67851;51.354;7.744;2024-02-04T04:58:32;30.75;;;16.80;;
78555;SDS011;67851;51.354;7.744;2024-02-04T05:00:59;26.88;;;15.40;;
78555;SDS011;67851;51.354;7.744;2024-02-04T05:03:26;26.60;;;15.43;;
78555;SDS011;67851;51.354;7.744;2024-02-04T05:05:53;19.95;;;12.13;;
78555;SDS011;67851;51.354;7.744;2024-02-04T05:08:20;22.40;;;12.75;;
78555;SDS011;67851;51.354;7.744;2024-02-04T05:10:47;21.65;;;11.25;;
78555;SDS011;67851;51.354;7.744;2024-02-04T05:13:15;15.52;;;8.68;;
78555;SDS011;67851;51.354;7.744;2024-02-04T05:15:41;12.00;;;7.57;;
78555;SDS011;67851;51.354;7.744;2024-02-04T05:18:08;19.30;;;11.02;;
78555;SDS011;67851;51.354;7.744;2024-02-04T05:20:35;18.25;;;11.15;;
78555;SDS011;67851;51.354;7.744;2024-02-04T05:23:01;24.60;;;12.40;;
78555;SDS011;67851;51.354;7.744;2024-02-04T05:25:28;20.50;;;13.23;;
78555;SDS011;67851;51.354;7.744;2024-02-04T05:27:55;21.02;;;12.63;;
78555;SDS011;67851;51.354;7.744;2024-02-04T05:30:22;24.88;;;13.32;;
78555;SDS011;67851;51.354;7.744;2024-02-04T05:32:49;25.52;;;12.32;;
78555;SDS011;67851;51.354;7.744;2024-02-04T05:35:15;25.83;;;14.38;;
78555;SDS011;67851;51.354;7.744;2024-02-04T05:37:42;24.13;;;14.13;;
78555;SDS011;67851;51.354;7.744;2024-02-04T05:40:09;24.27;;;15.18;;
78555;SDS011;67851;51.354;7.744;2024-02-04T05:42:36;28.33;;;15.48;;
78555;SDS011;67851;51.354;7.744;2024-02-04T05:45:03;26.40;;;15.98;;
78555;SDS011;67851;51.354;7.744;2024-02-04T05:47:32;32.75;;;18.95;;
78555;SDS011;67851;51.354;7.744;2024-02-04T05:49:58;31.73;;;18.20;;
78555;SDS011;67851;51.354;7.744;2024-02-04T05:52:26;33.30;;;19.85;;
78555;SDS011;67851;51.354;7.744;2024-02-04T05:54:52;30.73;;;18.27;;
78555;SDS011;67851;51.354;7.744;2024-02-04T05:57:19;31.95;;;19.35;;
78555;SDS011;67851;51.354;7.744;2024-02-04T05:59:46;35.00;;;21.73;;
78555;SDS011;67851;51.354;7.744;2024-02-04T06:02:14;37.85;;;21.48;;
78555;SDS011;67851;51.354;7.744;2024-02-04T06:04:42;30.88;;;20.67;;
78555;SDS011;67851;51.354;7.744;2024-02-04T06:07:08;35.15;;;21.83;;
78555;SDS011;67851;51.354;7.744;2024-02-04T06:09:35;32.30;;;19.10;;
78555;SDS011;67851;51.354;7.744;2024-02-04T06:12:02;29.55;;;19.77;;
78555;SDS011;67851;51.354;7.744;2024-02-04T06:14:33;25.75;;;16.38;;
78555;SDS011;67851;51.354;7.744;2024-02-04T06:17:01;29.98;;;19.23;;
78555;SDS011;67851;51.354;7.744;2024-02-04T06:19:28;29.05;;;20.05;;
78555;SDS011;67851;51.354;7.744;2024-02-04T06:21:55;34.80;;;21.58;;
78555;SDS011;67851;51.354;7.744;2024-02-04T06:24:23;36.55;;;21.15;;
78555;SDS011;67851;51.354;7.744;2024-02-04T06:26:50;37.30;;;20.35;;
78555;SDS011;67851;51.354;7.744;2024-02-04T06:29:18;31.65;;;20.25;;
78555;SDS011;67851;51.354;7.744;2024-02-04T06:31:46;35.42;;;21.35;;
78555;SDS011;67851;51.354;7.744;2024-02-04T06:34:15;34.20;;;20.05;;
78555;SDS011;67851;51.354;7.744;2024-02-04T06:36:42;29.50;;;19.65;;
78555;SDS011;67851;51.354;7.744;2024-02-04T06:39:11;30.40;;;17.92;;
78555;SDS011;67851;51.354;7.744;2024-02-04T06:41:37;31.55;;;18.73;;
78555;SDS011;67851;51.354;7.744;2024-02-04T06:44:04;30.42;;;17.00;;
78555;SDS011;67851;51.354;7.744;2024-02-04T06:46:31;26.42;;;18.05;;
78555;SDS011;67851;51.354;7.744;2024-02-04T06:48:58;28.27;;;17.25;;
78555;SDS011;67851;51.354;7.744;2024-02-04T06:51:24;28.50;;;17.83;;
78555;SDS011;67851;51.354;7.744;2024-02-04T06:53:51;29.83;;;17.33;;
78555;SDS011;67851;51.354;7.744;2024-02-04T06:56:18;31.05;;;18.75;;
78555;SDS011;67851;51.354;7.744;2024-02-04T06:58:45;24.13;;;16.58;;
78555;SDS011;67851;51.354;7.744;2024-02-04T07:01:11;29.95;;;17.25;;
78555;SDS011;67851;51.354;7.744;2024-02-04T07:03:39;30.02;;;17.48;;
78555;SDS011;67851;51.354;7.744;2024-02-04T07:06:05;27.85;;;17.20;;
78555;SDS011;67851;51.354;7.744;2024-02-04T07:08:34;36.58;;;18.40;;
78555;SDS011;67851;51.354;7.744;2024-02-04T07:11:01;28.45;;;16.13;;
78555;SDS011;67851;51.354;7.744;2024-02-04T07:13:29;30.65;;;16.95;;
78555;SDS011;67851;51.354;7.744;2024-02-04T07:15:56;30.33;;;17.33;;
78555;SDS011;67851;51.354;7.744;2024-02-04T07:18:23;26.65;;;14.60;;
78555;SDS011;67851;51.354;7.744;2024-02-04T07:20:50;30.60;;;15.80;;
78555;SDS011;67851;51.354;7.744;2024-02-04T07:23:17;29.65;;;14.65;;
78555;SDS011;67851;51.354;7.744;2024-02-04T07:25:46;23.60;;;11.02;;
78555;SDS011;67851;51.354;7.744;2024-02-04T07:28:13;20.95;;;10.95;;
78555;SDS011;67851;51.354;7.744;2024-02-04T07:30:40;22.88;;;10.40;;
78555;SDS011;67851;51.354;7.744;2024-02-04T07:33:07;21.52;;;10.35;;
78555;SDS011;67851;51.354;7.744;2024-02-04T07:35:34;16.02;;;8.88;;
78555;SDS011;67851;51.354;7.744;2024-02-04T07:38:00;24.35;;;9.20;;
78555;SDS011;67851;51.354;7.744;2024-02-04T07:40:27;23.02;;;10.85;;
78555;SDS011;67851;51.354;7.744;2024-02-04T07:42:54;20.33;;;10.68;;
78555;SDS011;67851;51.354;7.744;2024-02-04T07:45:21;21.13;;;10.63;;
78555;SDS011;67851;51.354;7.744;2024-02-04T07:47:48;22.70;;;11.23;;
78555;SDS011;67851;51.354;7.744;2024-02-04T07:50:15;17.58;;;9.82;;
78555;SDS011;67851;51.354;7.744;2024-02-04T07:52:43;17.88;;;10.38;;
78555;SDS011;67851;51.354;7.744;2024-02-04T07:55:10;21.13;;;9.60;;
78555;SDS011;67851;51.354;7.744;2024-02-04T07:57:38;16.35;;;9.35;;
78555;SDS011;67851;51.354;7.744;2024-02-04T08:00:08;15.57;;;8.68;;
78555;SDS011;67851;51.354;7.744;2024-02-04T08:02:39;13.70;;;8.77;;
78555;SDS011;67851;51.354;7.744;2024-02-04T08:05:06;13.57;;;8.35;;
78555;SDS011;67851;51.354;7.744;2024-02-04T08:07:33;10.20;;;7.63;;
78555;SDS011;67851;51.354;7.744;2024-02-04T08:10:15;12.48;;;6.95;;
78555;SDS011;67851;51.354;7.744;2024-02-04T08:12:42;11.80;;;6.03;;
78555;SDS011;67851;51.354;7.744;2024-02-04T08:15:09;8.00;;;5.50;;
78555;SDS011;67851;51.354;7.744;2024-02-04T08:17:36;8.38;;;5.72;;
78555;SDS011;67851;51.354;7.744;2024-02-04T08:20:03;8.98;;;4.95;;
78555;SDS011;67851;51.354;7.744;2024-02-04T08:22:33;6.78;;;4.03;;
78555;SDS011;67851;51.354;7.744;2024-02-04T08:25:00;8.43;;;4.70;;
78555;SDS011;67851;51.354;7.744;2024-02-04T08:27:28;5.78;;;3.63;;
78555;SDS011;67851;51.354;7.744;2024-02-04T08:29:56;4.15;;;2.85;;
78555;SDS011;67851;51.354;7.744;2024-02-04T08:32:23;4.90;;;3.50;;
78555;SDS011;67851;51.354;7.744;2024-02-04T08:34:57;4.30;;;2.80;;
78555;SDS011;67851;51.354;7.744;2024-02-04T08:37:24;2.95;;;2.30;;
78555;SDS011;67851;51.354;7.744;2024-02-04T08:39:54;3.50;;;2.65;;
78555;SDS011;67851;51.354;7.744;2024-02-04T08:42:21;3.55;;;2.25;;
78555;SDS011;67851;51.354;7.744;2024-02-04T08:44:48;3.55;;;2.63;;
78555;SDS011;67851;51.354;7.744;2024-02-04T08:47:16;4.20;;;2.47;;
78555;SDS011;67851;51.354;7.744;2024-02-04T08:49:43;4.43;;;2.85;;
78555;SDS011;67851;51.354;7.744;2024-02-04T08:52:10;5.13;;;3.00;;
78555;SDS011;67851;51.354;7.744;2024-02-04T08:54:36;3.53;;;2.70;;
78555;SDS011;67851;51.354;7.744;2024-02-04T08:57:04;3.20;;;2.30;;
78555;SDS011;67851;51.354;7.744;2024-02-04T08:59:30;5.13;;;2.33;;
78555;SDS011;67851;51.354;7.744;2024-02-04T09:01:57;4.18;;;2.72;;
78555;SDS011;67851;51.354;7.744;2024-02-04T09:04:24;5.00;;;3.08;;
78555;SDS011;67851;51.354;7.744;2024-02-04T09:06:51;2.67;;;2.25;;
78555;SDS011;67851;51.354;7.744;2024-02-04T09:09:19;5.88;;;3.00;;
78555;SDS011;67851;51.354;7.744;2024-02-04T09:11:46;5.93;;;3.10;;
78555;SDS011;67851;51.354;7.744;2024-02-04T09:14:12;3.80;;;1.77;;
78555;SDS011;67851;51.354;7.744;2024-02-04T09:16:39;4.20;;;2.40;;
78555;SDS011;67851;51.354;7.744;2024-02-04T09:19:06;4.85;;;2.35;;
78555;SDS011;67851;51.354;7.744;2024-02-04T09:21:35;3.05;;;1.88;;
78555;SDS011;67851;51.354;7.744;2024-02-04T09:24:02;3.80;;;2.60;;
78555;SDS011;67851;51.354;7.744;2024-02-04T09:26:28;4.22;;;2.20;;
78555;SDS011;67851;51.354;7.744;2024-02-04T09:28:55;3.92;;;2.35;;
78555;SDS011;67851;51.354;7.744;2024-02-04T09:31:23;6.25;;;4.05;;
78555;SDS011;67851;51.354;7.744;2024-02-04T09:33:52;3.88;;;2.75;;
78555;SDS011;67851;51.354;7.744;2024-02-04T09:36:19;5.20;;;3.35;;
78555;SDS011;67851;51.354;7.744;2024-02-04T09:38:49;4.03;;;2.30;;
78555;SDS011;67851;51.354;7.744;2024-02-04T09:41:16;2.88;;;2.25;;
78555;SDS011;67851;51.354;7.744;2024-02-04T09:43:42;2.95;;;2.05;;
78555;SDS011;67851;51.354;7.744;2024-02-04T09:46:10;2.42;;;1.42;;
78555;SDS011;67851;51.354;7.744;2024-02-04T09:48:46;2.28;;;1.80;;
78555;SDS011;67851;51.354;7.744;2024-02-04T09:51:13;5.97;;;3.38;;
78555;SDS011;67851;51.354;7.744;2024-02-04T09:53:45;5.47;;;3.55;;
78555;SDS011;67851;51.354;7.744;2024-02-04T09:56:17;12.55;;;6.35;;
78555;SDS011;67851;51.354;7.744;2024-02-04T09:58:44;14.95;;;7.22;;
78555;SDS011;67851;51.354;7.744;2024-02-04T10:01:11;14.38;;;6.70;;
78555;SDS011;67851;51.354;7.744;2024-02-04T10:03:40;14.48;;;7.50;;
78555;SDS011;67851;51.354;7.744;2024-02-04T10:06:07;18.45;;;8.10;;
78555;SDS011;67851;51.354;7.744;2024-02-04T10:08:35;13.85;;;8.43;;
78555;SDS011;67851;51.354;7.744;2024-02-04T10:11:03;10.15;;;6.13;;
78555;SDS011;67851;51.354;7.744;2024-02-04T10:13:30;15.43;;;8.52;;
78555;SDS011;67851;51.354;7.744;2024-02-04T10:15:57;17.20;;;9.52;;
78555;SDS011;67851;51.354;7.744;2024-02-04T10:18:25;14.30;;;8.57;;
78555;SDS011;67851;51.354;7.744;2024-02-04T10:20:53;14.52;;;9.35;;
78555;SDS011;67851;51.354;7.744;2024-02-04T10:23:19;13.95;;;8.77;;
78555;SDS011;67851;51.354;7.744;2024-02-04T10:25:46;13.60;;;8.57;;
78555;SDS011;67851;51.354;7.744;2024-02-04T10:28:12;15.82;;;8.60;;
78555;SDS011;67851;51.354;7.744;2024-02-04T10:30:40;15.25;;;8.77;;
78555;SDS011;67851;51.354;7.744;2024-02-04T10:33:07;9.32;;;6.85;;
78555;SDS011;67851;51.354;7.744;2024-02-04T10:35:44;10.70;;;6.18;;
78555;SDS011;67851;51.354;7.744;2024-02-04T10:38:14;10.18;;;5.68;;
78555;SDS011;67851;51.354;7.744;2024-02-04T10:40:42;10.73;;;5.15;;
78555;SDS011;67851;51.354;7.744;2024-02-04T10:43:10;11.73;;;5.97;;
78555;SDS011;67851;51.354;7.744;2024-02-04T10:45:39;8.32;;;5.80;;
78555;SDS011;67851;51.354;7.744;2024-02-04T10:48:10;8.60;;;5.38;;
78555;SDS011;67851;51.354;7.744;2024-02-04T10:50:38;11.05;;;6.05;;
78555;SDS011;67851;51.354;7.744;2024-02-04T10:53:06;8.52;;;5.70;;
78555;SDS011;67851;51.354;7.744;2024-02-04T10:55:39;10.98;;;6.28;;
78555;SDS011;67851;51.354;7.744;2024-02-04T10:58:07;7.80;;;5.13;;
78555;SDS011;67851;51.354;7.744;2024-02-04T11:00:35;7.35;;;5.03;;
78555;SDS011;67851;51.354;7.744;2024-02-04T11:03:03;7.50;;;4.75;;
78555;SDS011;67851;51.354;7.744;2024-02-04T11:05:32;4.97;;;3.70;;
78555;SDS011;67851;51.354;7.744;2024-02-04T11:08:02;8.32;;;4.68;;
78555;SDS011;67851;51.354;7.744;2024-02-04T11:10:31;7.35;;;5.07;;
78555;SDS011;67851;51.354;7.744;2024-02-04T11:12:58;9.80;;;6.28;;
78555;SDS011;67851;51.354;7.744;2024-02-04T11:15:29;12.45;;;6.55;;
78555;SDS011;67851;51.354;7.744;2024-02-04T11:26:13;9.63;;;6.13;;
78555;SDS011;67851;51.354;7.744;2024-02-04T11:28:40;8.70;;;4.90;;
78555;SDS011;67851;51.354;7.744;2024-02-04T11:31:16;4.45;;;3.05;;
78555;SDS011;67851;51.354;7.744;2024-02-04T11:33:44;6.20;;;4.05;;
78555;SDS011;67851;51.354;7.744;2024-02-04T11:36:12;7.13;;;4.90;;
78555;SDS011;67851;51.354;7.744;2024-02-04T11:38:40;4.47;;;3.42;;
78555;SDS011;67851;51.354;7.744;2024-02-04T11:41:07;6.43;;;4.03;;
78555;SDS011;67851;51.354;7.744;2024-02-04T11:43:35;5.82;;;3.90;;
78555;SDS011;67851;51.354;7.744;2024-02-04T11:46:04;5.55;;;3.85;;
78555;SDS011;67851;51.354;7.744;2024-02-04T11:48:35;5.95;;;3.78;;
78555;SDS011;67851;51.354;7.744;2024-02-04T11:51:04;6.10;;;4.10;;
78555;SDS011;67851;51.354;7.744;2024-02-04T11:53:32;6.30;;;4.70;;
78555;SDS011;67851;51.354;7.744;2024-02-04T11:56:00;7.70;;;4.95;;
78555;SDS011;67851;51.354;7.744;2024-02-04T11:58:27;6.78;;;5.03;;
78555;SDS011;67851;51.354;7.744;2024-02-04T12:00:54;15.15;;;5.50;;
78555;SDS011;67851;51.354;7.744;2024-02-04T12:03:31;7.47;;;5.20;;
78555;SDS011;67851;51.354;7.744;2024-02-04T12:05:59;9.25;;;6.10;;
78555;SDS011;67851;51.354;7.744;2024-02-04T12:08:27;9.43;;;6.53;;
78555;SDS011;67851;51.354;7.744;2024-02-04T12:10:55;8.00;;;5.72;;
78555;SDS011;67851;51.354;7.744;2024-02-04T12:13:23;8.25;;;5.65;;
78555;SDS011;67851;51.354;7.744;2024-02-04T12:15:51;8.68;;;6.07;;
78555;SDS011;67851;51.354;7.744;2024-02-04T12:18:18;34.28;;;6.95;;
78555;SDS011;67851;51.354;7.744;2024-02-04T12:20:47;11.02;;;4.80;;
78555;SDS011;67851;51.354;7.744;2024-02-04T12:23:17;10.25;;;4.93;;
78555;SDS011;67851;51.354;7.744;2024-02-04T12:25:50;3.45;;;3.08;;
78555;SDS011;67851;51.354;7.744;2024-02-04T12:28:17;4.53;;;3.15;;
78555;SDS011;67851;51.354;7.744;2024-02-04T12:30:52;3.35;;;2.75;;
78555;SDS011;67851;51.354;7.744;2024-02-04T12:33:20;3.95;;;2.40;;
78555;SDS011;67851;51.354;7.744;2024-02-04T12:35:50;3.00;;;2.05;;
78555;SDS011;67851;51.354;7.744;2024-02-04T12:38:17;9.45;;;4.30;;
78555;SDS011;67851;51.354;7.744;2024-02-04T12:40:45;2.42;;;1.92;;
78555;SDS011;67851;51.354;7.744;2024-02-04T12:43:12;2.88;;;1.90;;
78555;SDS011;67851;51.354;7.744;2024-02-04T12:45:39;2.38;;;1.88;;
78555;SDS011;67851;51.354;7.744;2024-02-04T12:48:08;2.30;;;1.75;;
78555;SDS011;67851;51.354;7.744;2024-02-04T12:50:37;2.80;;;1.88;;
78555;SDS011;67851;51.354;7.744;2024-02-04T12:53:08;3.35;;;1.85;;
78555;SDS011;67851;51.354;7.744;2024-02-04T12:55:37;2.55;;;1.60;;
78555;SDS011;67851;51.354;7.744;2024-02-04T12:58:06;4.85;;;2.42;;
78555;SDS011;67851;51.354;7.744;2024-02-04T13:00:35;5.13;;;2.85;;
78555;SDS011;67851;51.354;7.744;2024-02-04T13:03:03;5.72;;;3.83;;
78555;SDS011;67851;51.354;7.744;2024-02-04T13:05:31;7.13;;;3.83;;
78555;SDS011;67851;51.354;7.744;2024-02-04T13:08:00;4.95;;;3.58;;
78555;SDS011;67851;51.354;7.744;2024-02-04T13:13:00;9.55;;;4.40;;
78555;SDS011;67851;51.354;7.744;2024-02-04T13:15:32;9.23;;;3.50;;
78555;SDS011;67851;51.354;7.744;2024-02-04T13:18:08;7.82;;;4.18;;
78555;SDS011;67851;51.354;7.744;2024-02-04T13:20:38;6.57;;;3.13;;
78555;SDS011;67851;51.354;7.744;2024-02-04T13:23:15;4.90;;;2.65;;
78555;SDS011;67851;51.354;7.744;2024-02-04T13:25:42;4.38;;;2.80;;
78555;SDS011;67851;51.354;7.744;2024-02-04T13:28:08;6.50;;;2.88;;
78555;SDS011;67851;51.354;7.744;2024-02-04T13:30:36;3.40;;;1.98;;
78555;SDS011;67851;51.354;7.744;2024-02-04T13:33:03;3.63;;;2.40;;
78555;SDS011;67851;51.354;7.744;2024-02-04T13:35:30;5.32;;;2.60;;
78555;SDS011;67851;51.354;7.744;2024-02-04T13:37:57;4.20;;;2.40;;
78555;SDS011;67851;51.354;7.744;2024-02-04T13:40:24;6.65;;;3.35;;
78555;SDS011;67851;51.354;7.744;2024-02-04T13:42:51;3.25;;;2.10;;
78555;SDS011;67851;51.354;7.744;2024-02-04T13:45:19;5.63;;;2.20;;
78555;SDS011;67851;51.354;7.744;2024-02-04T13:47:46;2.55;;;1.80;;
78555;SDS011;67851;51.354;7.744;2024-02-04T13:50:13;1.90;;;1.60;;
78555;SDS011;67851;51.354;7.744;2024-02-04T13:52:41;3.80;;;1.80;;
78555;SDS011;67851;51.354;7.744;2024-02-04T13:55:07;2.08;;;1.15;;
78555;SDS011;67851;51.354;7.744;2024-02-04T13:57:36;3.42;;;1.50;;
78555;SDS011;67851;51.354;7.744;2024-02-04T14:00:03;4.75;;;1.50;;
78555;SDS011;67851;51.354;7.744;2024-02-04T14:02:32;2.35;;;1.30;;
78555;SDS011;67851;51.354;7.744;2024-02-04T14:05:01;1.25;;;1.15;;
78555;SDS011;67851;51.354;7.744;2024-02-04T14:07:28;1.70;;;1.30;;
78555;SDS011;67851;51.354;7.744;2024-02-04T14:09:55;3.28;;;1.27;;
78555;SDS011;67851;51.354;7.744;2024-02-04T14:12:22;1.40;;;1.30;;
78555;SDS011;67851;51.354;7.744;2024-02-04T14:14:49;1.40;;;1.10;;
78555;SDS011;67851;51.354;7.744;2024-02-04T14:17:17;2.08;;;1.30;;
78555;SDS011;67851;51.354;7.744;2024-02-04T14:19:45;1.63;;;1.10;;
78555;SDS011;67851;51.354;7.744;2024-02-04T14:22:16;1.60;;;1.30;;
78555;SDS011;67851;51.354;7.744;2024-02-04T14:24:44;2.17;;;1.15;;
78555;SDS011;67851;51.354;7.744;2024-02-04T14:27:12;1.73;;;1.33;;
78555;SDS011;67851;51.354;7.744;2024-02-04T14:29:40;3.65;;;1.75;;
78555;SDS011;67851;51.354;7.744;2024-02-04T14:32:08;7.28;;;3.15;;
78555;SDS011;67851;51.354;7.744;2024-02-04T14:34:36;7.25;;;3.38;;
78555;SDS011;67851;51.354;7.744;2024-02-04T14:37:03;10.20;;;5.20;;
78555;SDS011;67851;51.354;7.744;2024-02-04T14:39:30;2.28;;;1.73;;
78555;SDS011;67851;51.354;7.744;2024-02-04T14:42:00;2.47;;;1.67;;
78555;SDS011;67851;51.354;7.744;2024-02-04T14:44:27;3.10;;;1.98;;
78555;SDS011;67851;51.354;7.744;2024-02-04T14:46:54;3.45;;;1.90;;
78555;SDS011;67851;51.354;7.744;2024-02-04T14:49:22;3.95;;;2.97;;
78555;SDS011;67851;51.354;7.744;2024-02-04T14:51:49;2.85;;;2.00;;